sensor_id;sensor_type;location;lat;lon;timestamp;temperature;humidity
12374;DHT22;6251;51.762;8.660;2022-09-09T00:08:35;14.70;99.90
12374;DHT22;6251;51.762;8.660;2022-09-09T00:19:00;14.70;99.90
12374;DHT22;6251;51.762;8.660;2022-09-09T00:39:37;14.70;99.90
12374;DHT22;6251;51.762;8.660;2022-09-09T01:10:48;15.10;99.90
12374;DHT22;6251;51.762;8.660;2022-09-09T01:30:56;15.20;99.90
12374;DHT22;6251;51.762;8.660;2022-09-09T01:40:57;15.20;99.90
12374;DHT22;6251;51.762;8.660;2022-09-09T01:50:58;15.20;99.90
12374;DHT22;6251;51.762;8.660;2022-09-09T02:01:08;15.10;99.90
12374;DHT22;6251;51.762;8.660;2022-09-09T02:11:18;15.00;99.90
12374;DHT22;6251;51.762;8.660;2022-09-09T02:21:19;14.90;99.90
12374;DHT22;6251;51.762;8.660;2022-09-09T02:31:22;14.90;99.90
12374;DHT22;6251;51.762;8.660;2022-09-09T02:41:27;14.90;99.90
12374;DHT22;6251;51.762;8.660;2022-09-09T03:01:32;14.90;99.90
12374;DHT22;6251;51.762;8.660;2022-09-09T03:11:33;15.00;99.90
12374;DHT22;6251;51.762;8.660;2022-09-09T03:21:33;15.10;99.90
12374;DHT22;6251;51.762;8.660;2022-09-09T03:31:34;15.10;99.90
12374;DHT22;6251;51.762;8.660;2022-09-09T03:41:36;15.10;99.90
12374;DHT22;6251;51.762;8.660;2022-09-09T03:51:37;15.10;99.90
12374;DHT22;6251;51.762;8.660;2022-09-09T04:01:38;15.20;99.90
12374;DHT22;6251;51.762;8.660;2022-09-09T04:11:40;15.20;99.90
12374;DHT22;6251;51.762;8.660;2022-09-09T04:21:41;15.30;99.90
12374;DHT22;6251;51.762;8.660;2022-09-09T04:31:42;15.30;99.90
12374;DHT22;6251;51.762;8.660;2022-09-09T04:41:43;15.30;99.90
12374;DHT22;6251;51.762;8.660;2022-09-09T04:51:43;15.30;99.90
12374;DHT22;6251;51.762;8.660;2022-09-09T05:01:44;15.20;99.90
12374;DHT22;6251;51.762;8.660;2022-09-09T05:11:44;15.00;99.90
12374;DHT22;6251;51.762;8.660;2022-09-09T05:21:45;15.00;99.90
12374;DHT22;6251;51.762;8.660;2022-09-09T05:31:46;14.90;99.90
12374;DHT22;6251;51.762;8.660;2022-09-09T05:41:47;15.00;99.90
12374;DHT22;6251;51.762;8.660;2022-09-09T05:51:47;15.10;99.90
12374;DHT22;6251;51.762;8.660;2022-09-09T06:01:48;15.40;99.90
12374;DHT22;6251;51.762;8.660;2022-09-09T06:11:49;15.70;99.90
12374;DHT22;6251;51.762;8.660;2022-09-09T06:32:00;16.10;99.90
12374;DHT22;6251;51.762;8.660;2022-09-09T06:52:46;16.50;99.90
12374;DHT22;6251;51.762;8.660;2022-09-09T07:02:48;16.70;99.90
12374;DHT22;6251;51.762;8.660;2022-09-09T07:12:52;16.80;99.90
12374;DHT22;6251;51.762;8.660;2022-09-09T07:22:55;16.90;99.90
12374;DHT22;6251;51.762;8.660;2022-09-09T07:32:56;17.00;99.90
12374;DHT22;6251;51.762;8.660;2022-09-09T07:42:57;17.30;99.90
12374;DHT22;6251;51.762;8.660;2022-09-09T07:52:58;17.50;99.90
12374;DHT22;6251;51.762;8.660;2022-09-09T08:02:58;17.80;99.90
12374;DHT22;6251;51.762;8.660;2022-09-09T08:13:02;18.10;99.90
12374;DHT22;6251;51.762;8.660;2022-09-09T08:23:02;18.10;99.90
12374;DHT22;6251;51.762;8.660;2022-09-09T08:33:03;18.00;99.90
12374;DHT22;6251;51.762;8.660;2022-09-09T08:43:04;18.10;99.90
12374;DHT22;6251;51.762;8.660;2022-09-09T08:53:22;18.30;99.90
12374;DHT22;6251;51.762;8.660;2022-09-09T09:13:56;18.60;99.90
12374;DHT22;6251;51.762;8.660;2022-09-09T09:23:59;19.00;99.90
12374;DHT22;6251;51.762;8.660;2022-09-09T09:34:00;19.40;99.90
12374;DHT22;6251;51.762;8.660;2022-09-09T09:44:01;19.70;99.90
12374;DHT22;6251;51.762;8.660;2022-09-09T09:54:15;20.00;99.90
12374;DHT22;6251;51.762;8.660;2022-09-09T10:04:22;20.50;99.90
12374;DHT22;6251;51.762;8.660;2022-09-09T10:46:14;21.00;99.90
12374;DHT22;6251;51.762;8.660;2022-09-09T10:56:18;21.20;99.90
12374;DHT22;6251;51.762;8.660;2022-09-09T11:06:24;21.40;99.90
12374;DHT22;6251;51.762;8.660;2022-09-09T11:26:48;21.50;99.90
12374;DHT22;6251;51.762;8.660;2022-09-09T11:37:13;21.70;99.90
12374;DHT22;6251;51.762;8.660;2022-09-09T11:57:26;21.60;99.90
12374;DHT22;6251;51.762;8.660;2022-09-09T12:07:49;22.00;99.90
12374;DHT22;6251;51.762;8.660;2022-09-09T12:17:56;22.10;99.90
12374;DHT22;6251;51.762;8.660;2022-09-09T12:38:41;22.10;99.90
12374;DHT22;6251;51.762;8.660;2022-09-09T12:48:44;22.20;99.90
12374;DHT22;6251;51.762;8.660;2022-09-09T12:58:47;22.40;99.20
12374;DHT22;6251;51.762;8.660;2022-09-09T13:08:51;22.40;98.40
12374;DHT22;6251;51.762;8.660;2022-09-09T13:18:52;22.30;99.90
12374;DHT22;6251;51.762;8.660;2022-09-09T13:28:54;22.50;99.90
12374;DHT22;6251;51.762;8.660;2022-09-09T13:38:56;22.50;99.90
12374;DHT22;6251;51.762;8.660;2022-09-09T13:48:58;22.80;99.90
12374;DHT22;6251;51.762;8.660;2022-09-09T13:58:59;22.80;99.30
12374;DHT22;6251;51.762;8.660;2022-09-09T14:08:59;22.70;99.40
12374;DHT22;6251;51.762;8.660;2022-09-09T14:19:00;22.90;98.50
12374;DHT22;6251;51.762;8.660;2022-09-09T14:29:01;22.80;97.90
12374;DHT22;6251;51.762;8.660;2022-09-09T14:39:02;22.50;98.70
12374;DHT22;6251;51.762;8.660;2022-09-09T14:49:02;22.70;97.90
12374;DHT22;6251;51.762;8.660;2022-09-09T14:59:04;22.90;97.80
12374;DHT22;6251;51.762;8.660;2022-09-09T15:09:05;23.00;99.50
12374;DHT22;6251;51.762;8.660;2022-09-09T15:19:05;22.70;99.10
12374;DHT22;6251;51.762;8.660;2022-09-09T15:29:07;22.50;97.70
12374;DHT22;6251;51.762;8.660;2022-09-09T15:39:10;22.20;99.40
12374;DHT22;6251;51.762;8.660;2022-09-09T15:49:21;21.90;99.90
12374;DHT22;6251;51.762;8.660;2022-09-09T15:59:24;21.30;99.90
12374;DHT22;6251;51.762;8.660;2022-09-09T16:09:27;20.80;99.90
12374;DHT22;6251;51.762;8.660;2022-09-09T16:19:28;20.40;99.90
12374;DHT22;6251;51.762;8.660;2022-09-09T16:29:28;19.80;99.90
12374;DHT22;6251;51.762;8.660;2022-09-09T16:39:29;19.40;99.90
12374;DHT22;6251;51.762;8.660;2022-09-09T16:49:30;19.20;99.90
12374;DHT22;6251;51.762;8.660;2022-09-09T16:59:30;18.70;99.90
12374;DHT22;6251;51.762;8.660;2022-09-09T17:09:32;18.00;99.90
12374;DHT22;6251;51.762;8.660;2022-09-09T17:19:33;17.50;99.90
12374;DHT22;6251;51.762;8.660;2022-09-09T17:29:33;17.30;99.90
12374;DHT22;6251;51.762;8.660;2022-09-09T17:39:36;17.40;99.90
12374;DHT22;6251;51.762;8.660;2022-09-09T17:49:42;17.50;99.90
12374;DHT22;6251;51.762;8.660;2022-09-09T17:59:42;17.00;99.90
12374;DHT22;6251;51.762;8.660;2022-09-09T18:09:43;16.60;99.90
12374;DHT22;6251;51.762;8.660;2022-09-09T18:19:44;16.40;99.90
12374;DHT22;6251;51.762;8.660;2022-09-09T18:29:44;16.40;99.90
12374;DHT22;6251;51.762;8.660;2022-09-09T18:39:45;16.40;99.90
12374;DHT22;6251;51.762;8.660;2022-09-09T18:49:47;16.40;99.90
12374;DHT22;6251;51.762;8.660;2022-09-09T18:59:47;16.40;99.90
12374;DHT22;6251;51.762;8.660;2022-09-09T19:09:48;16.40;99.90
12374;DHT22;6251;51.762;8.660;2022-09-09T19:19:49;16.40;99.90
12374;DHT22;6251;51.762;8.660;2022-09-09T19:29:50;16.40;99.90
12374;DHT22;6251;51.762;8.660;2022-09-09T19:39:51;16.50;99.90
12374;DHT22;6251;51.762;8.660;2022-09-09T19:49:51;16.50;99.90
12374;DHT22;6251;51.762;8.660;2022-09-09T19:59:52;16.50;99.90
12374;DHT22;6251;51.762;8.660;2022-09-09T20:09:53;16.40;99.90
12374;DHT22;6251;51.762;8.660;2022-09-09T20:19:54;16.20;99.90
12374;DHT22;6251;51.762;8.660;2022-09-09T20:29:54;16.00;99.90
12374;DHT22;6251;51.762;8.660;2022-09-09T20:39:55;15.90;99.90
12374;DHT22;6251;51.762;8.660;2022-09-09T20:49:56;15.80;99.90
12374;DHT22;6251;51.762;8.660;2022-09-09T20:59:56;15.80;99.90
12374;DHT22;6251;51.762;8.660;2022-09-09T21:09:57;15.70;99.90
